sensor_id;sensor_type;location;lat;lon;timestamp;temperature;humidity
79049;DHT22;68680;50.764;6.120;2023-07-02T00:00:42;14.30;99.90
79049;DHT22;68680;50.764;6.120;2023-07-02T00:03:08;14.30;99.90
79049;DHT22;68680;50.764;6.120;2023-07-02T00:05:34;14.30;99.90
79049;DHT22;68680;50.764;6.120;2023-07-02T00:08:01;14.20;99.90
79049;DHT22;68680;50.764;6.120;2023-07-02T00:10:27;14.20;99.90
79049;DHT22;68680;50.764;6.120;2023-07-02T00:12:53;14.20;99.90
79049;DHT22;68680;50.764;6.120;2023-07-02T00:15:18;14.20;99.90
79049;DHT22;68680;50.764;6.120;2023-07-02T00:17:44;14.10;99.90
79049;DHT22;68680;50.764;6.120;2023-07-02T00:20:11;14.10;99.90
79049;DHT22;68680;50.764;6.120;2023-07-02T00:22:36;14.10;99.90
79049;DHT22;68680;50.764;6.120;2023-07-02T00:25:04;14.10;99.90
79049;DHT22;68680;50.764;6.120;2023-07-02T00:27:30;14.10;99.90
79049;DHT22;68680;50.764;6.120;2023-07-02T00:29:55;14.00;99.90
79049;DHT22;68680;50.764;6.120;2023-07-02T00:32:21;14.10;99.90
79049;DHT22;68680;50.764;6.120;2023-07-02T00:34:47;14.10;99.90
79049;DHT22;68680;50.764;6.120;2023-07-02T00:37:13;14.10;99.90
79049;DHT22;68680;50.764;6.120;2023-07-02T00:39:39;14.00;99.90
79049;DHT22;68680;50.764;6.120;2023-07-02T00:42:06;14.00;99.90
79049;DHT22;68680;50.764;6.120;2023-07-02T00:44:32;14.00;99.90
79049;DHT22;68680;50.764;6.120;2023-07-02T00:46:58;14.00;99.90
79049;DHT22;68680;50.764;6.120;2023-07-02T00:49:24;14.00;99.90
79049;DHT22;68680;50.764;6.120;2023-07-02T00:51:50;14.10;99.90
79049;DHT22;68680;50.764;6.120;2023-07-02T00:54:16;14.00;99.90
79049;DHT22;68680;50.764;6.120;2023-07-02T00:56:42;14.00;99.90
79049;DHT22;68680;50.764;6.120;2023-07-02T00:59:09;14.00;99.90
79049;DHT22;68680;50.764;6.120;2023-07-02T01:01:35;14.00;99.90
79049;DHT22;68680;50.764;6.120;2023-07-02T01:04:02;14.00;99.90
79049;DHT22;68680;50.764;6.120;2023-07-02T01:06:30;14.10;99.90
79049;DHT22;68680;50.764;6.120;2023-07-02T01:09:00;14.00;99.90
79049;DHT22;68680;50.764;6.120;2023-07-02T01:11:29;14.00;99.90
79049;DHT22;68680;50.764;6.120;2023-07-02T01:14:01;14.00;99.90
79049;DHT22;68680;50.764;6.120;2023-07-02T01:16:32;14.00;99.90
79049;DHT22;68680;50.764;6.120;2023-07-02T01:19:02;14.00;99.90
79049;DHT22;68680;50.764;6.120;2023-07-02T01:21:32;14.00;99.90
79049;DHT22;68680;50.764;6.120;2023-07-02T01:23:59;14.00;99.90
79049;DHT22;68680;50.764;6.120;2023-07-02T01:26:28;14.00;99.90
79049;DHT22;68680;50.764;6.120;2023-07-02T01:28:55;14.00;99.90
79049;DHT22;68680;50.764;6.120;2023-07-02T01:31:21;14.10;99.90
79049;DHT22;68680;50.764;6.120;2023-07-02T01:33:46;14.10;99.90
79049;DHT22;68680;50.764;6.120;2023-07-02T01:36:12;14.10;99.90
79049;DHT22;68680;50.764;6.120;2023-07-02T01:38:39;14.00;99.90
79049;DHT22;68680;50.764;6.120;2023-07-02T01:41:05;14.10;99.90
79049;DHT22;68680;50.764;6.120;2023-07-02T01:43:31;14.10;99.90
79049;DHT22;68680;50.764;6.120;2023-07-02T01:45:57;14.10;99.90
79049;DHT22;68680;50.764;6.120;2023-07-02T01:48:22;14.10;99.90
79049;DHT22;68680;50.764;6.120;2023-07-02T01:50:48;14.10;99.90
79049;DHT22;68680;50.764;6.120;2023-07-02T01:53:14;14.10;99.90
79049;DHT22;68680;50.764;6.120;2023-07-02T01:55:41;14.10;99.90
79049;DHT22;68680;50.764;6.120;2023-07-02T01:58:07;14.10;99.90
79049;DHT22;68680;50.764;6.120;2023-07-02T02:00:33;14.10;99.90
79049;DHT22;68680;50.764;6.120;2023-07-02T02:02:58;14.10;99.90
79049;DHT22;68680;50.764;6.120;2023-07-02T02:05:24;14.10;99.90
79049;DHT22;68680;50.764;6.120;2023-07-02T02:07:50;14.10;99.90
79049;DHT22;68680;50.764;6.120;2023-07-02T02:10:16;14.20;99.90
79049;DHT22;68680;50.764;6.120;2023-07-02T02:12:43;14.20;99.90
79049;DHT22;68680;50.764;6.120;2023-07-02T02:15:09;14.20;99.90
79049;DHT22;68680;50.764;6.120;2023-07-02T02:17:35;14.20;99.90
79049;DHT22;68680;50.764;6.120;2023-07-02T02:20:01;14.20;99.90
79049;DHT22;68680;50.764;6.120;2023-07-02T02:22:27;14.10;99.90
79049;DHT22;68680;50.764;6.120;2023-07-02T02:24:53;14.10;99.90
79049;DHT22;68680;50.764;6.120;2023-07-02T02:27:19;14.10;99.90
79049;DHT22;68680;50.764;6.120;2023-07-02T02:29:46;14.10;99.90
79049;DHT22;68680;50.764;6.120;2023-07-02T02:32:12;14.10;99.90
79049;DHT22;68680;50.764;6.120;2023-07-02T02:34:38;14.10;99.90
79049;DHT22;68680;50.764;6.120;2023-07-02T02:37:03;14.10;99.90
79049;DHT22;68680;50.764;6.120;2023-07-02T02:39:29;14.10;99.90
79049;DHT22;68680;50.764;6.120;2023-07-02T02:41:55;14.10;99.90
79049;DHT22;68680;50.764;6.120;2023-07-02T02:44:21;14.10;99.90
79049;DHT22;68680;50.764;6.120;2023-07-02T02:46:48;14.10;99.90
79049;DHT22;68680;50.764;6.120;2023-07-02T02:49:14;14.10;99.90
79049;DHT22;68680;50.764;6.120;2023-07-02T02:51:40;14.10;99.90
79049;DHT22;68680;50.764;6.120;2023-07-02T02:54:06;14.10;99.90
79049;DHT22;68680;50.764;6.120;2023-07-02T02:56:32;14.10;99.90
79049;DHT22;68680;50.764;6.120;2023-07-02T02:58:57;14.10;99.90
79049;DHT22;68680;50.764;6.120;2023-07-02T03:01:23;14.20;99.90
79049;DHT22;68680;50.764;6.120;2023-07-02T03:03:50;14.20;99.90
79049;DHT22;68680;50.764;6.120;2023-07-02T03:06:16;14.20;99.90
79049;DHT22;68680;50.764;6.120;2023-07-02T03:08:42;14.20;99.90
79049;DHT22;68680;50.764;6.120;2023-07-02T03:11:08;14.20;99.90
79049;DHT22;68680;50.764;6.120;2023-07-02T03:13:34;14.20;99.90
79049;DHT22;68680;50.764;6.120;2023-07-02T03:15:59;14.20;99.90
79049;DHT22;68680;50.764;6.120;2023-07-02T03:18:25;14.20;99.90
79049;DHT22;68680;50.764;6.120;2023-07-02T03:20:52;14.30;99.90
79049;DHT22;68680;50.764;6.120;2023-07-02T03:23:18;14.30;99.90
79049;DHT22;68680;50.764;6.120;2023-07-02T03:25:44;14.40;99.90
79049;DHT22;68680;50.764;6.120;2023-07-02T03:28:10;14.30;99.90
79049;DHT22;68680;50.764;6.120;2023-07-02T03:30:35;14.40;99.90
79049;DHT22;68680;50.764;6.120;2023-07-02T03:33:01;14.30;99.90
79049;DHT22;68680;50.764;6.120;2023-07-02T03:35:27;14.40;99.90
79049;DHT22;68680;50.764;6.120;2023-07-02T03:37:54;14.40;99.90
79049;DHT22;68680;50.764;6.120;2023-07-02T03:40:20;14.30;99.90
79049;DHT22;68680;50.764;6.120;2023-07-02T03:42:46;14.40;99.90
79049;DHT22;68680;50.764;6.120;2023-07-02T03:45:11;14.40;99.90
79049;DHT22;68680;50.764;6.120;2023-07-02T03:47:37;14.30;99.90
79049;DHT22;68680;50.764;6.120;2023-07-02T03:50:04;14.40;99.90
79049;DHT22;68680;50.764;6.120;2023-07-02T03:52:30;14.40;99.90
79049;DHT22;68680;50.764;6.120;2023-07-02T03:54:57;14.40;99.90
79049;DHT22;68680;50.764;6.120;2023-07-02T03:57:23;14.50;99.90
79049;DHT22;68680;50.764;6.120;2023-07-02T03:59:48;14.40;99.90
79049;DHT22;68680;50.764;6.120;2023-07-02T04:02:14;14.40;99.90
79049;DHT22;68680;50.764;6.120;2023-07-02T04:04:40;14.50;99.90
79049;DHT22;68680;50.764;6.120;2023-07-02T04:07:06;14.40;99.90
79049;DHT22;68680;50.764;6.120;2023-07-02T04:09:31;14.50;99.90
79049;DHT22;68680;50.764;6.120;2023-07-02T04:11:59;14.50;99.90
79049;DHT22;68680;50.764;6.120;2023-07-02T04:14:25;14.50;99.90
79049;DHT22;68680;50.764;6.120;2023-07-02T04:16:51;14.50;99.90
79049;DHT22;68680;50.764;6.120;2023-07-02T04:19:16;14.60;99.90
79049;DHT22;68680;50.764;6.120;2023-07-02T04:21:42;14.60;99.90
79049;DHT22;68680;50.764;6.120;2023-07-02T04:24:08;14.60;99.90
79049;DHT22;68680;50.764;6.120;2023-07-02T04:26:34;14.60;99.90
79049;DHT22;68680;50.764;6.120;2023-07-02T04:29:01;14.60;99.90
79049;DHT22;68680;50.764;6.120;2023-07-02T04:31:27;14.60;99.90
79049;DHT22;68680;50.764;6.120;2023-07-02T04:33:53;14.60;99.90
79049;DHT22;68680;50.764;6.120;2023-07-02T04:36:19;14.60;99.90
79049;DHT22;68680;50.764;6.120;2023-07-02T04:38:44;14.60;99.90
79049;DHT22;68680;50.764;6.120;2023-07-02T04:41:10;14.70;99.90
79049;DHT22;68680;50.764;6.120;2023-07-02T04:43:36;14.70;99.90
79049;DHT22;68680;50.764;6.120;2023-07-02T04:46:03;14.60;99.90
79049;DHT22;68680;50.764;6.120;2023-07-02T04:48:29;14.70;99.90
79049;DHT22;68680;50.764;6.120;2023-07-02T04:50:55;14.70;99.90
79049;DHT22;68680;50.764;6.120;2023-07-02T04:53:20;14.70;99.90
79049;DHT22;68680;50.764;6.120;2023-07-02T04:55:46;14.70;99.90
79049;DHT22;68680;50.764;6.120;2023-07-02T04:58:12;14.80;99.90
79049;DHT22;68680;50.764;6.120;2023-07-02T05:00:38;14.80;99.90
79049;DHT22;68680;50.764;6.120;2023-07-02T05:03:05;14.90;99.90
79049;DHT22;68680;50.764;6.120;2023-07-02T05:05:31;14.90;99.90
79049;DHT22;68680;50.764;6.120;2023-07-02T05:07:57;14.90;99.90
79049;DHT22;68680;50.764;6.120;2023-07-02T05:10:23;14.80;99.90
79049;DHT22;68680;50.764;6.120;2023-07-02T05:12:48;14.90;99.90
79049;DHT22;68680;50.764;6.120;2023-07-02T05:15:14;14.90;99.90
79049;DHT22;68680;50.764;6.120;2023-07-02T05:17:40;15.00;99.90
79049;DHT22;68680;50.764;6.120;2023-07-02T05:20:09;14.90;99.90
79049;DHT22;68680;50.764;6.120;2023-07-02T05:22:35;15.00;99.90
79049;DHT22;68680;50.764;6.120;2023-07-02T05:25:01;15.00;99.90
79049;DHT22;68680;50.764;6.120;2023-07-02T05:27:27;15.10;99.90
79049;DHT22;68680;50.764;6.120;2023-07-02T05:29:52;15.10;99.90
79049;DHT22;68680;50.764;6.120;2023-07-02T05:32:18;15.10;99.90
79049;DHT22;68680;50.764;6.120;2023-07-02T05:34:44;15.20;99.90
79049;DHT22;68680;50.764;6.120;2023-07-02T05:37:11;15.20;99.90
79049;DHT22;68680;50.764;6.120;2023-07-02T05:39:37;15.20;99.90
79049;DHT22;68680;50.764;6.120;2023-07-02T05:42:03;15.20;99.90
79049;DHT22;68680;50.764;6.120;2023-07-02T05:44:29;15.30;99.90
79049;DHT22;68680;50.764;6.120;2023-07-02T05:46:55;15.30;99.90
79049;DHT22;68680;50.764;6.120;2023-07-02T05:49:21;15.40;99.90
79049;DHT22;68680;50.764;6.120;2023-07-02T05:51:47;15.40;99.90
79049;DHT22;68680;50.764;6.120;2023-07-02T05:54:15;15.50;99.90
79049;DHT22;68680;50.764;6.120;2023-07-02T05:56:40;15.50;99.90
79049;DHT22;68680;50.764;6.120;2023-07-02T05:59:06;15.50;99.90
79049;DHT22;68680;50.764;6.120;2023-07-02T06:01:32;15.50;99.90
79049;DHT22;68680;50.764;6.120;2023-07-02T06:03:58;15.60;99.90
79049;DHT22;68680;50.764;6.120;2023-07-02T06:06:24;15.50;99.90
79049;DHT22;68680;50.764;6.120;2023-07-02T06:08:49;15.60;99.90
79049;DHT22;68680;50.764;6.120;2023-07-02T06:11:17;15.60;99.90
79049;DHT22;68680;50.764;6.120;2023-07-02T06:13:43;15.60;99.90
79049;DHT22;68680;50.764;6.120;2023-07-02T06:16:08;15.60;99.90
79049;DHT22;68680;50.764;6.120;2023-07-02T06:18:34;15.60;99.90
79049;DHT22;68680;50.764;6.120;2023-07-02T06:21:00;15.60;99.90
79049;DHT22;68680;50.764;6.120;2023-07-02T06:23:26;15.60;99.90
79049;DHT22;68680;50.764;6.120;2023-07-02T06:25:52;15.60;99.90
79049;DHT22;68680;50.764;6.120;2023-07-02T06:28:19;15.70;99.90
79049;DHT22;68680;50.764;6.120;2023-07-02T06:30:45;15.80;99.90
79049;DHT22;68680;50.764;6.120;2023-07-02T06:33:10;15.90;99.90
79049;DHT22;68680;50.764;6.120;2023-07-02T06:35:36;15.90;99.90
79049;DHT22;68680;50.764;6.120;2023-07-02T06:38:02;15.90;99.90
79049;DHT22;68680;50.764;6.120;2023-07-02T06:40:28;16.00;99.90
79049;DHT22;68680;50.764;6.120;2023-07-02T06:42:53;16.00;99.90
79049;DHT22;68680;50.764;6.120;2023-07-02T06:45:21;16.00;99.90
79049;DHT22;68680;50.764;6.120;2023-07-02T06:47:46;16.00;99.90
79049;DHT22;68680;50.764;6.120;2023-07-02T06:50:12;16.10;99.90
79049;DHT22;68680;50.764;6.120;2023-07-02T06:52:38;16.10;99.90
79049;DHT22;68680;50.764;6.120;2023-07-02T06:55:04;16.20;99.90
79049;DHT22;68680;50.764;6.120;2023-07-02T06:57:30;16.20;99.90
79049;DHT22;68680;50.764;6.120;2023-07-02T06:59:58;16.30;99.90
79049;DHT22;68680;50.764;6.120;2023-07-02T07:02:25;16.30;99.90
79049;DHT22;68680;50.764;6.120;2023-07-02T07:04:51;16.30;99.90
79049;DHT22;68680;50.764;6.120;2023-07-02T07:07:17;16.20;99.90
79049;DHT22;68680;50.764;6.120;2023-07-02T07:09:43;16.20;99.90
79049;DHT22;68680;50.764;6.120;2023-07-02T07:12:09;16.40;99.90
79049;DHT22;68680;50.764;6.120;2023-07-02T07:14:35;16.50;99.90
79049;DHT22;68680;50.764;6.120;2023-07-02T07:17:00;16.70;99.90
79049;DHT22;68680;50.764;6.120;2023-07-02T07:19:28;16.70;99.90
79049;DHT22;68680;50.764;6.120;2023-07-02T07:21:54;16.80;99.90
79049;DHT22;68680;50.764;6.120;2023-07-02T07:24:19;16.70;99.90
79049;DHT22;68680;50.764;6.120;2023-07-02T07:26:45;16.70;99.90
79049;DHT22;68680;50.764;6.120;2023-07-02T07:29:11;16.70;99.90
79049;DHT22;68680;50.764;6.120;2023-07-02T07:31:37;16.70;99.90
79049;DHT22;68680;50.764;6.120;2023-07-02T07:34:02;16.80;99.90
79049;DHT22;68680;50.764;6.120;2023-07-02T07:36:30;16.80;99.90
79049;DHT22;68680;50.764;6.120;2023-07-02T07:38:55;16.90;99.90
79049;DHT22;68680;50.764;6.120;2023-07-02T07:41:21;17.00;99.60
79049;DHT22;68680;50.764;6.120;2023-07-02T07:43:47;16.90;97.90
79049;DHT22;68680;50.764;6.120;2023-07-02T07:46:13;16.90;98.00
79049;DHT22;68680;50.764;6.120;2023-07-02T07:48:38;17.00;99.30
79049;DHT22;68680;50.764;6.120;2023-07-02T07:51:04;16.90;97.20
79049;DHT22;68680;50.764;6.120;2023-07-02T07:53:31;16.90;98.40
79049;DHT22;68680;50.764;6.120;2023-07-02T07:55:57;16.90;98.20
79049;DHT22;68680;50.764;6.120;2023-07-02T07:58:23;16.90;97.60
79049;DHT22;68680;50.764;6.120;2023-07-02T08:00:49;17.00;98.50
79049;DHT22;68680;50.764;6.120;2023-07-02T08:03:14;17.00;99.50
79049;DHT22;68680;50.764;6.120;2023-07-02T08:05:40;16.90;97.70
79049;DHT22;68680;50.764;6.120;2023-07-02T08:08:06;17.00;98.80
79049;DHT22;68680;50.764;6.120;2023-07-02T08:10:33;17.10;98.70
79049;DHT22;68680;50.764;6.120;2023-07-02T08:12:59;17.10;97.90
79049;DHT22;68680;50.764;6.120;2023-07-02T08:15:25;17.10;97.00
79049;DHT22;68680;50.764;6.120;2023-07-02T08:17:50;17.10;97.00
79049;DHT22;68680;50.764;6.120;2023-07-02T08:20:16;17.10;97.90
79049;DHT22;68680;50.764;6.120;2023-07-02T08:22:42;17.10;96.60
79049;DHT22;68680;50.764;6.120;2023-07-02T08:25:08;17.20;95.80
79049;DHT22;68680;50.764;6.120;2023-07-02T08:27:35;17.40;97.80
79049;DHT22;68680;50.764;6.120;2023-07-02T08:30:01;17.40;96.20
79049;DHT22;68680;50.764;6.120;2023-07-02T08:32:27;17.60;95.60
79049;DHT22;68680;50.764;6.120;2023-07-02T08:34:53;17.60;96.20
79049;DHT22;68680;50.764;6.120;2023-07-02T08:37:20;17.60;95.00
79049;DHT22;68680;50.764;6.120;2023-07-02T08:39:48;17.40;94.60
79049;DHT22;68680;50.764;6.120;2023-07-02T08:42:14;17.40;95.70
79049;DHT22;68680;50.764;6.120;2023-07-02T08:44:42;17.40;95.40
79049;DHT22;68680;50.764;6.120;2023-07-02T08:47:11;17.30;95.50
79049;DHT22;68680;50.764;6.120;2023-07-02T08:49:37;17.30;94.90
79049;DHT22;68680;50.764;6.120;2023-07-02T08:52:04;17.30;95.00
79049;DHT22;68680;50.764;6.120;2023-07-02T08:54:31;17.40;94.90
79049;DHT22;68680;50.764;6.120;2023-07-02T08:56:56;17.40;96.90
79049;DHT22;68680;50.764;6.120;2023-07-02T08:59:22;17.50;96.10
79049;DHT22;68680;50.764;6.120;2023-07-02T09:01:51;17.40;96.30
79049;DHT22;68680;50.764;6.120;2023-07-02T09:04:18;17.40;94.70
79049;DHT22;68680;50.764;6.120;2023-07-02T09:06:45;17.40;95.90
79049;DHT22;68680;50.764;6.120;2023-07-02T09:09:11;17.30;96.00
79049;DHT22;68680;50.764;6.120;2023-07-02T09:11:47;17.30;96.00
79049;DHT22;68680;50.764;6.120;2023-07-02T09:14:23;17.20;95.00
79049;DHT22;68680;50.764;6.120;2023-07-02T09:17:01;17.10;95.50
79049;DHT22;68680;50.764;6.120;2023-07-02T09:19:27;17.20;95.90
79049;DHT22;68680;50.764;6.120;2023-07-02T09:21:53;17.30;96.20
79049;DHT22;68680;50.764;6.120;2023-07-02T09:24:23;17.30;96.10
79049;DHT22;68680;50.764;6.120;2023-07-02T09:26:50;17.40;96.00
79049;DHT22;68680;50.764;6.120;2023-07-02T09:29:18;17.40;95.30
79049;DHT22;68680;50.764;6.120;2023-07-02T09:31:47;17.70;96.50
79049;DHT22;68680;50.764;6.120;2023-07-02T09:34:14;17.90;94.20
79049;DHT22;68680;50.764;6.120;2023-07-02T09:36:41;17.90;94.40
79049;DHT22;68680;50.764;6.120;2023-07-02T09:39:08;17.80;94.00
79049;DHT22;68680;50.764;6.120;2023-07-02T09:41:36;17.80;94.40
79049;DHT22;68680;50.764;6.120;2023-07-02T09:44:04;17.90;94.20
79049;DHT22;68680;50.764;6.120;2023-07-02T09:46:31;18.00;93.60
79049;DHT22;68680;50.764;6.120;2023-07-02T09:48:58;18.30;93.70
79049;DHT22;68680;50.764;6.120;2023-07-02T09:51:26;18.30;91.90
79049;DHT22;68680;50.764;6.120;2023-07-02T09:53:52;18.20;90.90
79049;DHT22;68680;50.764;6.120;2023-07-02T09:56:18;18.30;90.70
79049;DHT22;68680;50.764;6.120;2023-07-02T09:58:45;18.40;89.50
79049;DHT22;68680;50.764;6.120;2023-07-02T10:01:11;18.40;90.10
79049;DHT22;68680;50.764;6.120;2023-07-02T10:03:37;18.40;89.00
79049;DHT22;68680;50.764;6.120;2023-07-02T10:06:03;18.40;86.90
79049;DHT22;68680;50.764;6.120;2023-07-02T10:08:31;18.30;86.00
79049;DHT22;68680;50.764;6.120;2023-07-02T10:11:07;18.20;86.40
79049;DHT22;68680;50.764;6.120;2023-07-02T10:13:34;18.30;88.20
79049;DHT22;68680;50.764;6.120;2023-07-02T10:16:02;18.40;86.80
79049;DHT22;68680;50.764;6.120;2023-07-02T10:18:28;18.30;85.20
79049;DHT22;68680;50.764;6.120;2023-07-02T10:20:54;18.30;81.80
79049;DHT22;68680;50.764;6.120;2023-07-02T10:23:20;18.20;84.70
79049;DHT22;68680;50.764;6.120;2023-07-02T10:26:09;18.20;81.90
79049;DHT22;68680;50.764;6.120;2023-07-02T10:28:36;18.00;80.70
79049;DHT22;68680;50.764;6.120;2023-07-02T10:31:01;17.90;83.50
79049;DHT22;68680;50.764;6.120;2023-07-02T10:33:27;17.70;82.40
79049;DHT22;68680;50.764;6.120;2023-07-02T10:35:53;17.70;85.80
79049;DHT22;68680;50.764;6.120;2023-07-02T10:38:20;17.50;87.10
79049;DHT22;68680;50.764;6.120;2023-07-02T10:40:54;17.40;90.30
79049;DHT22;68680;50.764;6.120;2023-07-02T10:43:24;17.40;90.20
79049;DHT22;68680;50.764;6.120;2023-07-02T10:45:50;17.50;90.20
79049;DHT22;68680;50.764;6.120;2023-07-02T10:48:16;17.80;90.60
79049;DHT22;68680;50.764;6.120;2023-07-02T10:50:42;18.10;90.50
79049;DHT22;68680;50.764;6.120;2023-07-02T10:53:14;18.30;89.00
79049;DHT22;68680;50.764;6.120;2023-07-02T10:55:40;18.40;86.10
79049;DHT22;68680;50.764;6.120;2023-07-02T10:58:08;18.40;88.30
79049;DHT22;68680;50.764;6.120;2023-07-02T11:00:43;18.50;88.60
79049;DHT22;68680;50.764;6.120;2023-07-02T11:03:16;18.40;90.10
79049;DHT22;68680;50.764;6.120;2023-07-02T11:05:43;18.20;86.50
79049;DHT22;68680;50.764;6.120;2023-07-02T11:08:09;18.00;82.20
79049;DHT22;68680;50.764;6.120;2023-07-02T11:10:35;17.80;81.80
79049;DHT22;68680;50.764;6.120;2023-07-02T11:13:11;17.70;85.40
79049;DHT22;68680;50.764;6.120;2023-07-02T11:15:38;17.80;86.20
79049;DHT22;68680;50.764;6.120;2023-07-02T11:18:09;17.80;88.20
79049;DHT22;68680;50.764;6.120;2023-07-02T11:20:35;17.80;85.20
79049;DHT22;68680;50.764;6.120;2023-07-02T11:23:01;17.90;85.70
79049;DHT22;68680;50.764;6.120;2023-07-02T11:25:26;18.00;84.10
79049;DHT22;68680;50.764;6.120;2023-07-02T11:28:02;18.20;84.10
79049;DHT22;68680;50.764;6.120;2023-07-02T11:30:29;18.60;82.60
79049;DHT22;68680;50.764;6.120;2023-07-02T11:32:55;18.70;78.00
79049;DHT22;68680;50.764;6.120;2023-07-02T11:35:22;18.80;79.30
79049;DHT22;68680;50.764;6.120;2023-07-02T11:37:59;18.90;76.60
79049;DHT22;68680;50.764;6.120;2023-07-02T11:40:25;18.90;75.10
79049;DHT22;68680;50.764;6.120;2023-07-02T11:42:51;19.00;76.40
79049;DHT22;68680;50.764;6.120;2023-07-02T11:45:17;19.00;78.10
79049;DHT22;68680;50.764;6.120;2023-07-02T11:47:44;18.90;79.20
79049;DHT22;68680;50.764;6.120;2023-07-02T11:50:10;18.80;76.20
79049;DHT22;68680;50.764;6.120;2023-07-02T11:52:36;18.70;77.60
79049;DHT22;68680;50.764;6.120;2023-07-02T11:55:02;18.80;77.00
79049;DHT22;68680;50.764;6.120;2023-07-02T11:57:28;19.10;74.20
79049;DHT22;68680;50.764;6.120;2023-07-02T11:59:54;19.30;74.60
79049;DHT22;68680;50.764;6.120;2023-07-02T12:02:20;19.60;71.70
79049;DHT22;68680;50.764;6.120;2023-07-02T12:04:47;19.50;70.10
79049;DHT22;68680;50.764;6.120;2023-07-02T12:07:13;19.40;67.60
79049;DHT22;68680;50.764;6.120;2023-07-02T12:09:39;19.40;67.20
79049;DHT22;68680;50.764;6.120;2023-07-02T12:12:06;19.50;65.40
79049;DHT22;68680;50.764;6.120;2023-07-02T12:14:32;19.60;63.00
79049;DHT22;68680;50.764;6.120;2023-07-02T12:16:58;19.70;64.60
79049;DHT22;68680;50.764;6.120;2023-07-02T12:19:24;19.60;63.10
79049;DHT22;68680;50.764;6.120;2023-07-02T12:21:51;19.40;64.50
79049;DHT22;68680;50.764;6.120;2023-07-02T12:24:17;19.40;66.00
79049;DHT22;68680;50.764;6.120;2023-07-02T12:26:42;19.60;67.70
79049;DHT22;68680;50.764;6.120;2023-07-02T12:29:08;20.00;67.10
79049;DHT22;68680;50.764;6.120;2023-07-02T12:31:34;20.10;64.60
79049;DHT22;68680;50.764;6.120;2023-07-02T12:34:00;20.10;63.40
79049;DHT22;68680;50.764;6.120;2023-07-02T12:36:27;20.20;62.30
79049;DHT22;68680;50.764;6.120;2023-07-02T12:38:54;20.40;61.40
79049;DHT22;68680;50.764;6.120;2023-07-02T12:41:20;20.70;59.60
79049;DHT22;68680;50.764;6.120;2023-07-02T12:43:45;20.70;62.60
79049;DHT22;68680;50.764;6.120;2023-07-02T12:46:11;20.60;62.10
79049;DHT22;68680;50.764;6.120;2023-07-02T12:48:37;20.60;59.40
79049;DHT22;68680;50.764;6.120;2023-07-02T12:51:03;20.50;61.10
79049;DHT22;68680;50.764;6.120;2023-07-02T12:53:29;20.30;60.90
79049;DHT22;68680;50.764;6.120;2023-07-02T12:55:56;20.20;61.30
79049;DHT22;68680;50.764;6.120;2023-07-02T12:58:22;20.00;62.60
79049;DHT22;68680;50.764;6.120;2023-07-02T13:00:48;20.00;63.80
79049;DHT22;68680;50.764;6.120;2023-07-02T13:03:14;20.00;65.20
79049;DHT22;68680;50.764;6.120;2023-07-02T13:05:42;20.10;63.50
79049;DHT22;68680;50.764;6.120;2023-07-02T13:08:09;20.70;59.70
79049;DHT22;68680;50.764;6.120;2023-07-02T13:10:35;21.20;58.30
79049;DHT22;68680;50.764;6.120;2023-07-02T13:13:02;22.60;58.10
79049;DHT22;68680;50.764;6.120;2023-07-02T13:15:28;23.50;50.80
79049;DHT22;68680;50.764;6.120;2023-07-02T13:17:54;23.30;51.60
79049;DHT22;68680;50.764;6.120;2023-07-02T13:20:20;22.40;53.60
79049;DHT22;68680;50.764;6.120;2023-07-02T13:22:45;21.60;56.10
79049;DHT22;68680;50.764;6.120;2023-07-02T13:25:11;21.10;57.50
79049;DHT22;68680;50.764;6.120;2023-07-02T13:27:37;20.80;60.40
79049;DHT22;68680;50.764;6.120;2023-07-02T13:30:05;20.50;59.60
79049;DHT22;68680;50.764;6.120;2023-07-02T13:32:32;20.50;59.20
79049;DHT22;68680;50.764;6.120;2023-07-02T13:34:58;20.60;61.50
79049;DHT22;68680;50.764;6.120;2023-07-02T13:37:24;20.40;60.20
79049;DHT22;68680;50.764;6.120;2023-07-02T13:39:49;20.20;60.40
79049;DHT22;68680;50.764;6.120;2023-07-02T13:42:15;20.10;61.20
79049;DHT22;68680;50.764;6.120;2023-07-02T13:44:42;20.20;62.90
79049;DHT22;68680;50.764;6.120;2023-07-02T13:47:10;20.30;62.20
79049;DHT22;68680;50.764;6.120;2023-07-02T13:49:35;20.90;61.60
79049;DHT22;68680;50.764;6.120;2023-07-02T13:52:01;21.80;56.10
79049;DHT22;68680;50.764;6.120;2023-07-02T13:54:27;22.00;56.70
79049;DHT22;68680;50.764;6.120;2023-07-02T13:56:55;22.00;56.90
79049;DHT22;68680;50.764;6.120;2023-07-02T13:59:22;22.00;56.00
79049;DHT22;68680;50.764;6.120;2023-07-02T14:01:49;22.10;55.60
79049;DHT22;68680;50.764;6.120;2023-07-02T14:04:16;22.20;55.20
79049;DHT22;68680;50.764;6.120;2023-07-02T14:06:43;22.60;55.40
79049;DHT22;68680;50.764;6.120;2023-07-02T14:09:09;22.60;53.80
79049;DHT22;68680;50.764;6.120;2023-07-02T14:11:37;22.10;53.80
79049;DHT22;68680;50.764;6.120;2023-07-02T14:14:04;21.70;56.30
79049;DHT22;68680;50.764;6.120;2023-07-02T14:16:32;21.20;57.70
79049;DHT22;68680;50.764;6.120;2023-07-02T14:18:57;21.30;59.40
79049;DHT22;68680;50.764;6.120;2023-07-02T14:21:23;21.40;57.40
79049;DHT22;68680;50.764;6.120;2023-07-02T14:23:49;22.40;57.30
79049;DHT22;68680;50.764;6.120;2023-07-02T14:26:15;23.40;50.70
79049;DHT22;68680;50.764;6.120;2023-07-02T14:28:41;22.70;52.40
79049;DHT22;68680;50.764;6.120;2023-07-02T14:31:07;22.40;55.90
79049;DHT22;68680;50.764;6.120;2023-07-02T14:33:36;22.80;54.10
79049;DHT22;68680;50.764;6.120;2023-07-02T14:36:04;23.50;52.30
79049;DHT22;68680;50.764;6.120;2023-07-02T14:38:30;24.50;49.60
79049;DHT22;68680;50.764;6.120;2023-07-02T14:40:57;24.50;47.20
79049;DHT22;68680;50.764;6.120;2023-07-02T14:43:24;23.30;50.00
79049;DHT22;68680;50.764;6.120;2023-07-02T14:45:54;22.90;52.30
79049;DHT22;68680;50.764;6.120;2023-07-02T14:48:21;22.80;54.00
79049;DHT22;68680;50.764;6.120;2023-07-02T14:50:50;22.20;53.80
79049;DHT22;68680;50.764;6.120;2023-07-02T14:53:18;21.70;56.50
79049;DHT22;68680;50.764;6.120;2023-07-02T14:55:44;21.40;58.30
79049;DHT22;68680;50.764;6.120;2023-07-02T14:58:14;21.40;56.40
79049;DHT22;68680;50.764;6.120;2023-07-02T15:00:44;21.60;59.10
79049;DHT22;68680;50.764;6.120;2023-07-02T15:03:10;21.40;57.10
79049;DHT22;68680;50.764;6.120;2023-07-02T15:05:36;21.20;58.70
79049;DHT22;68680;50.764;6.120;2023-07-02T15:08:03;21.00;60.10
79049;DHT22;68680;50.764;6.120;2023-07-02T15:10:29;21.10;62.00
79049;DHT22;68680;50.764;6.120;2023-07-02T15:12:55;21.00;59.20
79049;DHT22;68680;50.764;6.120;2023-07-02T15:15:20;20.90;58.10
79049;DHT22;68680;50.764;6.120;2023-07-02T15:17:46;20.90;58.70
79049;DHT22;68680;50.764;6.120;2023-07-02T15:20:12;21.00;58.90
79049;DHT22;68680;50.764;6.120;2023-07-02T15:22:38;21.00;59.40
79049;DHT22;68680;50.764;6.120;2023-07-02T15:25:06;21.00;58.70